sensor_id;sensor_type;location;lat;lon;timestamp;P1;durP1;ratioP1;P2;durP2;ratioP2
48629;SDS011;34426;52.180;4.462;2023-09-08T00:02:13;10.23;;;9.25;;
48629;SDS011;34426;52.180;4.462;2023-09-08T00:04:40;12.00;;;9.45;;
48629;SDS011;34426;52.180;4.462;2023-09-08T00:07:10;11.60;;;10.10;;
48629;SDS011;34426;52.180;4.462;2023-09-08T00:09:37;21.15;;;11.18;;
48629;SDS011;34426;52.180;4.462;2023-09-08T00:12:04;12.88;;;9.75;;
48629;SDS011;34426;52.180;4.462;2023-09-08T00:14:31;19.25;;;10.55;;
48629;SDS011;34426;52.180;4.462;2023-09-08T00:16:59;15.23;;;10.20;;
48629;SDS011;34426;52.180;4.462;2023-09-08T00:19:26;12.48;;;10.18;;
48629;SDS011;34426;52.180;4.462;2023-09-08T00:21:54;12.73;;;10.60;;
48629;SDS011;34426;52.180;4.462;2023-09-08T00:24:24;13.00;;;10.02;;
48629;SDS011;34426;52.180;4.462;2023-09-08T00:26:51;16.88;;;10.18;;
48629;SDS011;34426;52.180;4.462;2023-09-08T00:29:18;16.67;;;10.98;;
48629;SDS011;34426;52.180;4.462;2023-09-08T00:31:45;10.98;;;9.57;;
48629;SDS011;34426;52.180;4.462;2023-09-08T00:34:12;14.18;;;9.88;;
48629;SDS011;34426;52.180;4.462;2023-09-08T00:36:40;13.20;;;9.85;;
48629;SDS011;34426;52.180;4.462;2023-09-08T00:39:07;16.00;;;9.98;;
48629;SDS011;34426;52.180;4.462;2023-09-08T00:41:36;12.27;;;9.73;;
48629;SDS011;34426;52.180;4.462;2023-09-08T00:44:04;11.82;;;10.00;;
48629;SDS011;34426;52.180;4.462;2023-09-08T00:46:31;12.00;;;10.02;;
48629;SDS011;34426;52.180;4.462;2023-09-08T00:48:59;15.60;;;10.60;;
48629;SDS011;34426;52.180;4.462;2023-09-08T00:51:27;14.30;;;10.25;;
48629;SDS011;34426;52.180;4.462;2023-09-08T00:53:55;13.00;;;9.60;;
48629;SDS011;34426;52.180;4.462;2023-09-08T00:56:22;13.88;;;10.20;;
48629;SDS011;34426;52.180;4.462;2023-09-08T00:58:51;12.25;;;10.13;;
48629;SDS011;34426;52.180;4.462;2023-09-08T01:01:19;12.77;;;10.77;;
48629;SDS011;34426;52.180;4.462;2023-09-08T01:03:46;12.45;;;10.65;;
48629;SDS011;34426;52.180;4.462;2023-09-08T01:06:13;15.15;;;9.77;;
48629;SDS011;34426;52.180;4.462;2023-09-08T01:08:42;12.88;;;9.68;;
48629;SDS011;34426;52.180;4.462;2023-09-08T01:11:09;15.95;;;10.10;;
48629;SDS011;34426;52.180;4.462;2023-09-08T01:13:37;14.30;;;10.82;;
48629;SDS011;34426;52.180;4.462;2023-09-08T01:16:06;16.35;;;10.88;;
48629;SDS011;34426;52.180;4.462;2023-09-08T01:18:33;11.15;;;9.95;;
48629;SDS011;34426;52.180;4.462;2023-09-08T01:21:09;14.55;;;11.70;;
48629;SDS011;34426;52.180;4.462;2023-09-08T01:23:54;15.15;;;10.95;;
48629;SDS011;34426;52.180;4.462;2023-09-08T01:26:40;18.52;;;12.10;;
48629;SDS011;34426;52.180;4.462;2023-09-08T01:29:07;12.60;;;9.90;;
48629;SDS011;34426;52.180;4.462;2023-09-08T01:31:36;17.75;;;11.43;;
48629;SDS011;34426;52.180;4.462;2023-09-08T01:34:04;15.98;;;10.90;;
48629;SDS011;34426;52.180;4.462;2023-09-08T01:36:33;14.98;;;10.77;;
48629;SDS011;34426;52.180;4.462;2023-09-08T01:39:01;12.15;;;10.70;;
48629;SDS011;34426;52.180;4.462;2023-09-08T01:41:28;15.52;;;11.27;;
48629;SDS011;34426;52.180;4.462;2023-09-08T01:43:57;14.35;;;10.77;;
48629;SDS011;34426;52.180;4.462;2023-09-08T01:46:25;15.73;;;12.15;;
48629;SDS011;34426;52.180;4.462;2023-09-08T01:48:52;14.55;;;11.63;;
48629;SDS011;34426;52.180;4.462;2023-09-08T01:51:19;16.35;;;12.70;;
48629;SDS011;34426;52.180;4.462;2023-09-08T01:53:47;15.50;;;12.23;;
48629;SDS011;34426;52.180;4.462;2023-09-08T01:56:14;16.52;;;12.25;;
48629;SDS011;34426;52.180;4.462;2023-09-08T01:58:42;12.43;;;10.98;;
48629;SDS011;34426;52.180;4.462;2023-09-08T02:01:11;16.08;;;11.93;;
48629;SDS011;34426;52.180;4.462;2023-09-08T02:03:39;14.30;;;11.60;;
48629;SDS011;34426;52.180;4.462;2023-09-08T02:06:06;14.70;;;11.85;;
48629;SDS011;34426;52.180;4.462;2023-09-08T02:08:33;12.80;;;10.95;;
48629;SDS011;34426;52.180;4.462;2023-09-08T02:11:00;13.68;;;12.02;;
48629;SDS011;34426;52.180;4.462;2023-09-08T02:13:28;19.02;;;12.55;;
48629;SDS011;34426;52.180;4.462;2023-09-08T02:15:55;14.93;;;12.43;;
48629;SDS011;34426;52.180;4.462;2023-09-08T02:18:23;15.05;;;12.18;;
48629;SDS011;34426;52.180;4.462;2023-09-08T02:20:51;14.13;;;12.63;;
48629;SDS011;34426;52.180;4.462;2023-09-08T02:23:18;18.00;;;12.18;;
48629;SDS011;34426;52.180;4.462;2023-09-08T02:25:46;14.07;;;12.35;;
48629;SDS011;34426;52.180;4.462;2023-09-08T02:28:13;13.98;;;12.48;;
48629;SDS011;34426;52.180;4.462;2023-09-08T02:30:40;14.93;;;12.93;;
48629;SDS011;34426;52.180;4.462;2023-09-08T02:33:08;14.45;;;12.38;;
48629;SDS011;34426;52.180;4.462;2023-09-08T02:35:37;20.35;;;13.15;;
48629;SDS011;34426;52.180;4.462;2023-09-08T02:38:05;15.18;;;12.40;;
48629;SDS011;34426;52.180;4.462;2023-09-08T02:40:32;16.15;;;12.75;;
48629;SDS011;34426;52.180;4.462;2023-09-08T02:43:00;16.33;;;13.35;;
48629;SDS011;34426;52.180;4.462;2023-09-08T02:45:27;16.38;;;13.27;;
48629;SDS011;34426;52.180;4.462;2023-09-08T02:47:55;16.67;;;13.63;;
48629;SDS011;34426;52.180;4.462;2023-09-08T02:50:22;17.90;;;14.10;;
48629;SDS011;34426;52.180;4.462;2023-09-08T02:52:52;16.08;;;13.98;;
48629;SDS011;34426;52.180;4.462;2023-09-08T02:55:19;17.40;;;13.75;;
48629;SDS011;34426;52.180;4.462;2023-09-08T02:57:46;21.27;;;13.68;;
48629;SDS011;34426;52.180;4.462;2023-09-08T03:00:14;16.95;;;14.05;;
48629;SDS011;34426;52.180;4.462;2023-09-08T03:02:41;18.73;;;14.38;;
48629;SDS011;34426;52.180;4.462;2023-09-08T03:05:09;20.95;;;14.43;;
48629;SDS011;34426;52.180;4.462;2023-09-08T03:07:36;19.20;;;15.25;;
48629;SDS011;34426;52.180;4.462;2023-09-08T03:10:06;20.25;;;14.70;;
48629;SDS011;34426;52.180;4.462;2023-09-08T03:12:34;17.77;;;13.88;;
48629;SDS011;34426;52.180;4.462;2023-09-08T03:15:01;16.25;;;14.55;;
48629;SDS011;34426;52.180;4.462;2023-09-08T03:17:29;16.27;;;14.27;;
48629;SDS011;34426;52.180;4.462;2023-09-08T03:19:57;19.08;;;14.23;;
48629;SDS011;34426;52.180;4.462;2023-09-08T03:22:24;20.65;;;16.83;;
48629;SDS011;34426;52.180;4.462;2023-09-08T03:24:52;19.23;;;15.93;;
48629;SDS011;34426;52.180;4.462;2023-09-08T03:27:21;19.40;;;15.05;;
48629;SDS011;34426;52.180;4.462;2023-09-08T03:29:49;18.23;;;15.20;;
48629;SDS011;34426;52.180;4.462;2023-09-08T03:32:16;18.80;;;15.80;;
48629;SDS011;34426;52.180;4.462;2023-09-08T03:34:44;16.40;;;14.70;;
48629;SDS011;34426;52.180;4.462;2023-09-08T03:37:11;17.08;;;15.40;;
48629;SDS011;34426;52.180;4.462;2023-09-08T03:39:38;19.33;;;15.80;;
48629;SDS011;34426;52.180;4.462;2023-09-08T03:42:06;20.10;;;15.35;;
48629;SDS011;34426;52.180;4.462;2023-09-08T03:44:35;20.00;;;15.30;;
48629;SDS011;34426;52.180;4.462;2023-09-08T03:47:02;22.50;;;16.20;;
48629;SDS011;34426;52.180;4.462;2023-09-08T03:49:30;19.88;;;16.35;;
48629;SDS011;34426;52.180;4.462;2023-09-08T03:51:57;19.95;;;16.70;;
48629;SDS011;34426;52.180;4.462;2023-09-08T03:54:26;20.10;;;16.25;;
48629;SDS011;34426;52.180;4.462;2023-09-08T03:56:53;21.60;;;16.70;;
48629;SDS011;34426;52.180;4.462;2023-09-08T03:59:21;23.17;;;16.60;;
48629;SDS011;34426;52.180;4.462;2023-09-08T04:01:50;19.98;;;16.90;;
48629;SDS011;34426;52.180;4.462;2023-09-08T04:04:18;22.70;;;18.20;;
48629;SDS011;34426;52.180;4.462;2023-09-08T04:06:45;19.83;;;16.67;;
48629;SDS011;34426;52.180;4.462;2023-09-08T04:09:13;19.10;;;17.10;;
48629;SDS011;34426;52.180;4.462;2023-09-08T04:11:41;19.67;;;16.30;;
48629;SDS011;34426;52.180;4.462;2023-09-08T04:14:08;26.25;;;17.45;;
48629;SDS011;34426;52.180;4.462;2023-09-08T04:16:36;18.13;;;16.27;;
48629;SDS011;34426;52.180;4.462;2023-09-08T04:19:05;18.42;;;16.40;;
48629;SDS011;34426;52.180;4.462;2023-09-08T04:21:33;19.08;;;17.08;;
48629;SDS011;34426;52.180;4.462;2023-09-08T04:24:00;20.23;;;18.08;;
48629;SDS011;34426;52.180;4.462;2023-09-08T04:26:28;22.77;;;17.50;;
48629;SDS011;34426;52.180;4.462;2023-09-08T04:28:55;20.60;;;17.45;;
48629;SDS011;34426;52.180;4.462;2023-09-08T04:31:23;22.63;;;17.58;;
48629;SDS011;34426;52.180;4.462;2023-09-08T04:33:50;24.35;;;17.20;;
48629;SDS011;34426;52.180;4.462;2023-09-08T04:36:20;18.67;;;16.33;;
48629;SDS011;34426;52.180;4.462;2023-09-08T04:38:47;20.63;;;16.88;;
48629;SDS011;34426;52.180;4.462;2023-09-08T04:41:15;20.02;;;17.42;;
48629;SDS011;34426;52.180;4.462;2023-09-08T04:43:42;21.30;;;18.67;;
48629;SDS011;34426;52.180;4.462;2023-09-08T04:46:11;21.90;;;16.90;;
48629;SDS011;34426;52.180;4.462;2023-09-08T04:48:39;24.48;;;18.38;;
48629;SDS011;34426;52.180;4.462;2023-09-08T04:51:06;24.45;;;18.38;;
48629;SDS011;34426;52.180;4.462;2023-09-08T04:53:35;19.88;;;16.73;;
48629;SDS011;34426;52.180;4.462;2023-09-08T04:56:03;18.48;;;16.40;;
48629;SDS011;34426;52.180;4.462;2023-09-08T04:58:30;29.48;;;17.55;;
48629;SDS011;34426;52.180;4.462;2023-09-08T05:00:57;24.15;;;17.63;;
48629;SDS011;34426;52.180;4.462;2023-09-08T05:03:25;19.30;;;17.30;;
48629;SDS011;34426;52.180;4.462;2023-09-08T05:05:52;25.38;;;18.40;;
48629;SDS011;34426;52.180;4.462;2023-09-08T05:08:20;20.38;;;18.17;;
48629;SDS011;34426;52.180;4.462;2023-09-08T05:10:49;19.88;;;17.77;;
48629;SDS011;34426;52.180;4.462;2023-09-08T05:13:16;18.65;;;16.75;;
48629;SDS011;34426;52.180;4.462;2023-09-08T05:15:44;24.63;;;18.90;;
48629;SDS011;34426;52.180;4.462;2023-09-08T05:18:11;22.45;;;18.42;;
48629;SDS011;34426;52.180;4.462;2023-09-08T05:20:39;24.50;;;18.02;;
48629;SDS011;34426;52.180;4.462;2023-09-08T05:23:06;23.25;;;17.75;;
48629;SDS011;34426;52.180;4.462;2023-09-08T05:25:33;25.25;;;18.25;;
48629;SDS011;34426;52.180;4.462;2023-09-08T05:28:03;26.42;;;18.92;;
48629;SDS011;34426;52.180;4.462;2023-09-08T05:30:31;21.60;;;18.83;;
48629;SDS011;34426;52.180;4.462;2023-09-08T05:32:58;23.75;;;18.15;;
48629;SDS011;34426;52.180;4.462;2023-09-08T05:35:25;26.80;;;18.20;;
48629;SDS011;34426;52.180;4.462;2023-09-08T05:37:52;25.63;;;17.83;;
48629;SDS011;34426;52.180;4.462;2023-09-08T05:40:19;23.30;;;17.98;;
48629;SDS011;34426;52.180;4.462;2023-09-08T05:42:46;22.60;;;18.02;;
48629;SDS011;34426;52.180;4.462;2023-09-08T05:45:15;29.48;;;19.08;;
48629;SDS011;34426;52.180;4.462;2023-09-08T05:47:43;23.55;;;18.55;;
48629;SDS011;34426;52.180;4.462;2023-09-08T05:50:10;23.08;;;16.80;;
48629;SDS011;34426;52.180;4.462;2023-09-08T05:52:37;21.33;;;18.17;;
48629;SDS011;34426;52.180;4.462;2023-09-08T05:55:05;20.50;;;18.20;;
48629;SDS011;34426;52.180;4.462;2023-09-08T05:57:32;20.77;;;16.98;;
48629;SDS011;34426;52.180;4.462;2023-09-08T06:00:00;22.08;;;19.30;;
48629;SDS011;34426;52.180;4.462;2023-09-08T06:02:30;22.90;;;18.70;;
48629;SDS011;34426;52.180;4.462;2023-09-08T06:04:57;24.48;;;19.83;;
48629;SDS011;34426;52.180;4.462;2023-09-08T06:07:24;22.13;;;19.00;;
48629;SDS011;34426;52.180;4.462;2023-09-08T06:09:52;21.88;;;18.33;;
48629;SDS011;34426;52.180;4.462;2023-09-08T06:12:19;22.55;;;17.63;;
48629;SDS011;34426;52.180;4.462;2023-09-08T06:14:47;23.17;;;18.10;;
48629;SDS011;34426;52.180;4.462;2023-09-08T06:17:14;24.05;;;18.85;;
48629;SDS011;34426;52.180;4.462;2023-09-08T06:19:44;21.23;;;18.90;;
48629;SDS011;34426;52.180;4.462;2023-09-08T06:22:11;23.98;;;18.85;;
48629;SDS011;34426;52.180;4.462;2023-09-08T06:24:39;20.25;;;17.13;;
48629;SDS011;34426;52.180;4.462;2023-09-08T06:27:06;19.98;;;17.30;;
48629;SDS011;34426;52.180;4.462;2023-09-08T06:29:33;25.75;;;19.05;;
48629;SDS011;34426;52.180;4.462;2023-09-08T06:32:01;21.08;;;16.77;;
48629;SDS011;34426;52.180;4.462;2023-09-08T06:34:28;26.70;;;18.08;;
48629;SDS011;34426;52.180;4.462;2023-09-08T06:36:56;26.73;;;19.85;;
48629;SDS011;34426;52.180;4.462;2023-09-08T06:39:25;30.17;;;19.55;;
48629;SDS011;34426;52.180;4.462;2023-09-08T06:41:52;23.88;;;18.65;;
48629;SDS011;34426;52.180;4.462;2023-09-08T06:44:20;32.35;;;18.38;;
48629;SDS011;34426;52.180;4.462;2023-09-08T06:46:48;25.67;;;19.38;;
48629;SDS011;34426;52.180;4.462;2023-09-08T06:49:15;24.63;;;17.70;;
48629;SDS011;34426;52.180;4.462;2023-09-08T06:51:42;22.38;;;19.05;;
48629;SDS011;34426;52.180;4.462;2023-09-08T06:54:12;21.05;;;18.75;;
48629;SDS011;34426;52.180;4.462;2023-09-08T06:56:39;25.77;;;20.10;;
48629;SDS011;34426;52.180;4.462;2023-09-08T06:59:06;34.08;;;18.20;;
48629;SDS011;34426;52.180;4.462;2023-09-08T07:01:33;20.75;;;18.42;;
48629;SDS011;34426;52.180;4.462;2023-09-08T07:04:01;24.27;;;19.27;;
48629;SDS011;34426;52.180;4.462;2023-09-08T07:06:28;25.58;;;20.05;;
48629;SDS011;34426;52.180;4.462;2023-09-08T07:08:56;32.75;;;20.58;;
48629;SDS011;34426;52.180;4.462;2023-09-08T07:11:25;33.33;;;21.10;;
48629;SDS011;34426;52.180;4.462;2023-09-08T07:13:53;26.73;;;19.95;;
48629;SDS011;34426;52.180;4.462;2023-09-08T07:16:20;28.10;;;19.95;;
48629;SDS011;34426;52.180;4.462;2023-09-08T07:18:46;19.95;;;17.92;;
48629;SDS011;34426;52.180;4.462;2023-09-08T07:21:12;29.58;;;20.13;;
48629;SDS011;34426;52.180;4.462;2023-09-08T07:23:40;25.08;;;18.80;;
48629;SDS011;34426;52.180;4.462;2023-09-08T07:26:07;28.83;;;18.90;;
48629;SDS011;34426;52.180;4.462;2023-09-08T07:28:36;26.02;;;20.48;;
48629;SDS011;34426;52.180;4.462;2023-09-08T07:31:03;29.67;;;19.38;;
48629;SDS011;34426;52.180;4.462;2023-09-08T07:33:31;26.52;;;23.00;;
48629;SDS011;34426;52.180;4.462;2023-09-08T07:36:03;29.67;;;20.70;;
48629;SDS011;34426;52.180;4.462;2023-09-08T07:38:31;32.67;;;21.73;;
48629;SDS011;34426;52.180;4.462;2023-09-08T07:40:58;30.83;;;19.60;;
48629;SDS011;34426;52.180;4.462;2023-09-08T07:43:25;26.02;;;21.67;;
48629;SDS011;34426;52.180;4.462;2023-09-08T07:45:55;23.05;;;19.98;;
48629;SDS011;34426;52.180;4.462;2023-09-08T07:48:22;27.95;;;21.63;;
48629;SDS011;34426;52.180;4.462;2023-09-08T07:50:49;29.55;;;22.40;;
48629;SDS011;34426;52.180;4.462;2023-09-08T07:53:15;29.48;;;21.23;;
48629;SDS011;34426;52.180;4.462;2023-09-08T07:55:42;27.35;;;20.98;;
48629;SDS011;34426;52.180;4.462;2023-09-08T07:58:10;27.92;;;21.95;;
48629;SDS011;34426;52.180;4.462;2023-09-08T08:00:37;26.13;;;21.10;;
48629;SDS011;34426;52.180;4.462;2023-09-08T08:03:05;23.80;;;19.55;;
48629;SDS011;34426;52.180;4.462;2023-09-08T08:05:31;29.05;;;18.73;;
48629;SDS011;34426;52.180;4.462;2023-09-08T08:07:56;25.67;;;20.85;;
48629;SDS011;34426;52.180;4.462;2023-09-08T08:10:21;29.38;;;21.42;;
48629;SDS011;34426;52.180;4.462;2023-09-08T08:12:47;26.65;;;21.90;;
48629;SDS011;34426;52.180;4.462;2023-09-08T08:15:13;24.48;;;21.05;;
48629;SDS011;34426;52.180;4.462;2023-09-08T08:17:41;26.05;;;21.83;;
48629;SDS011;34426;52.180;4.462;2023-09-08T08:20:11;24.73;;;19.02;;
48629;SDS011;34426;52.180;4.462;2023-09-08T08:22:38;31.25;;;20.40;;
48629;SDS011;34426;52.180;4.462;2023-09-08T08:25:05;24.13;;;18.67;;
48629;SDS011;34426;52.180;4.462;2023-09-08T08:27:33;28.67;;;22.30;;
48629;SDS011;34426;52.180;4.462;2023-09-08T08:30:00;28.17;;;22.75;;
48629;SDS011;34426;52.180;4.462;2023-09-08T08:32:28;30.63;;;24.02;;
48629;SDS011;34426;52.180;4.462;2023-09-08T08:34:56;25.83;;;21.60;;
48629;SDS011;34426;52.180;4.462;2023-09-08T08:37:25;26.02;;;20.67;;
48629;SDS011;34426;52.180;4.462;2023-09-08T08:39:52;30.10;;;22.85;;
48629;SDS011;34426;52.180;4.462;2023-09-08T08:42:20;30.67;;;24.10;;
48629;SDS011;34426;52.180;4.462;2023-09-08T08:44:47;27.52;;;23.50;;
48629;SDS011;34426;52.180;4.462;2023-09-08T08:47:15;35.03;;;23.17;;
48629;SDS011;34426;52.180;4.462;2023-09-08T08:49:44;31.88;;;23.65;;
48629;SDS011;34426;52.180;4.462;2023-09-08T08:52:14;30.83;;;22.02;;
48629;SDS011;34426;52.180;4.462;2023-09-08T08:54:44;33.13;;;21.42;;
48629;SDS011;34426;52.180;4.462;2023-09-08T08:57:12;32.45;;;21.73;;
48629;SDS011;34426;52.180;4.462;2023-09-08T08:59:40;32.63;;;22.17;;
48629;SDS011;34426;52.180;4.462;2023-09-08T09:02:07;36.03;;;23.17;;
48629;SDS011;34426;52.180;4.462;2023-09-08T09:04:37;28.92;;;22.30;;
48629;SDS011;34426;52.180;4.462;2023-09-08T09:07:05;28.67;;;20.25;;
48629;SDS011;34426;52.180;4.462;2023-09-08T09:09:33;30.52;;;21.77;;
48629;SDS011;34426;52.180;4.462;2023-09-08T09:12:03;31.88;;;22.27;;
48629;SDS011;34426;52.180;4.462;2023-09-08T09:14:32;29.80;;;20.85;;
48629;SDS011;34426;52.180;4.462;2023-09-08T09:16:59;26.65;;;20.67;;
48629;SDS011;34426;52.180;4.462;2023-09-08T09:19:25;32.15;;;21.17;;
48629;SDS011;34426;52.180;4.462;2023-09-08T09:21:53;28.35;;;21.38;;
48629;SDS011;34426;52.180;4.462;2023-09-08T09:24:28;33.10;;;20.98;;
48629;SDS011;34426;52.180;4.462;2023-09-08T09:26:57;29.52;;;20.52;;
48629;SDS011;34426;52.180;4.462;2023-09-08T09:29:27;22.67;;;17.95;;
48629;SDS011;34426;52.180;4.462;2023-09-08T09:31:55;27.27;;;19.13;;
48629;SDS011;34426;52.180;4.462;2023-09-08T09:34:23;22.27;;;17.20;;
48629;SDS011;34426;52.180;4.462;2023-09-08T09:36:51;24.48;;;17.08;;
48629;SDS011;34426;52.180;4.462;2023-09-08T09:39:18;25.10;;;18.20;;
48629;SDS011;34426;52.180;4.462;2023-09-08T09:41:46;26.58;;;17.17;;
48629;SDS011;34426;52.180;4.462;2023-09-08T09:44:14;34.80;;;16.63;;
48629;SDS011;34426;52.180;4.462;2023-09-08T09:46:46;23.95;;;16.83;;
48629;SDS011;34426;52.180;4.462;2023-09-08T09:49:15;25.85;;;17.35;;
48629;SDS011;34426;52.180;4.462;2023-09-08T09:51:43;29.13;;;17.15;;
48629;SDS011;34426;52.180;4.462;2023-09-08T09:54:11;25.45;;;17.58;;
48629;SDS011;34426;52.180;4.462;2023-09-08T09:56:39;18.58;;;13.60;;
48629;SDS011;34426;52.180;4.462;2023-09-08T09:59:07;29.75;;;15.13;;
48629;SDS011;34426;52.180;4.462;2023-09-08T10:01:36;21.38;;;15.52;;
48629;SDS011;34426;52.180;4.462;2023-09-08T10:04:05;19.25;;;14.18;;
48629;SDS011;34426;52.180;4.462;2023-09-08T10:06:33;21.67;;;14.32;;
48629;SDS011;34426;52.180;4.462;2023-09-08T10:09:02;25.80;;;15.23;;
48629;SDS011;34426;52.180;4.462;2023-09-08T10:11:33;21.02;;;14.32;;
48629;SDS011;34426;52.180;4.462;2023-09-08T10:14:04;27.58;;;14.75;;
48629;SDS011;34426;52.180;4.462;2023-09-08T10:16:34;17.20;;;13.80;;
48629;SDS011;34426;52.180;4.462;2023-09-08T10:19:07;26.05;;;14.05;;
48629;SDS011;34426;52.180;4.462;2023-09-08T10:21:36;22.73;;;12.65;;
48629;SDS011;34426;52.180;4.462;2023-09-08T10:24:09;18.20;;;14.02;;
48629;SDS011;34426;52.180;4.462;2023-09-08T10:26:43;21.63;;;11.50;;
48629;SDS011;34426;52.180;4.462;2023-09-08T10:29:12;23.65;;;9.90;;
48629;SDS011;34426;52.180;4.462;2023-09-08T10:31:40;17.63;;;9.43;;
48629;SDS011;34426;52.180;4.462;2023-09-08T10:34:11;18.08;;;11.30;;
48629;SDS011;34426;52.180;4.462;2023-09-08T10:36:39;24.30;;;12.32;;
48629;SDS011;34426;52.180;4.462;2023-09-08T10:44:59;16.90;;;12.65;;
48629;SDS011;34426;52.180;4.462;2023-09-08T10:47:31;25.27;;;12.77;;
48629;SDS011;34426;52.180;4.462;2023-09-08T10:50:01;14.70;;;9.52;;
48629;SDS011;34426;52.180;4.462;2023-09-08T10:52:28;20.95;;;10.43;;
48629;SDS011;34426;52.180;4.462;2023-09-08T10:54:55;20.42;;;10.93;;
48629;SDS011;34426;52.180;4.462;2023-09-08T10:57:24;20.23;;;11.43;;
48629;SDS011;34426;52.180;4.462;2023-09-08T10:59:51;17.92;;;10.40;;
48629;SDS011;34426;52.180;4.462;2023-09-08T11:02:36;19.15;;;8.25;;
48629;SDS011;34426;52.180;4.462;2023-09-08T11:05:07;22.23;;;9.30;;
48629;SDS011;34426;52.180;4.462;2023-09-08T11:07:36;17.02;;;11.00;;
48629;SDS011;34426;52.180;4.462;2023-09-08T11:10:04;15.52;;;11.20;;
48629;SDS011;34426;52.180;4.462;2023-09-08T11:12:31;11.68;;;7.32;;
48629;SDS011;34426;52.180;4.462;2023-09-08T11:14:59;10.07;;;6.60;;
48629;SDS011;34426;52.180;4.462;2023-09-08T11:17:28;17.00;;;7.60;;
48629;SDS011;34426;52.180;4.462;2023-09-08T11:19:55;16.92;;;7.85;;
48629;SDS011;34426;52.180;4.462;2023-09-08T11:22:25;15.63;;;8.82;;
48629;SDS011;34426;52.180;4.462;2023-09-08T11:24:52;20.85;;;8.68;;
48629;SDS011;34426;52.180;4.462;2023-09-08T11:27:21;18.70;;;8.25;;
48629;SDS011;34426;52.180;4.462;2023-09-08T11:29:49;15.80;;;8.88;;
48629;SDS011;34426;52.180;4.462;2023-09-08T11:32:17;19.65;;;9.77;;
48629;SDS011;34426;52.180;4.462;2023-09-08T11:34:44;12.00;;;7.78;;
48629;SDS011;34426;52.180;4.462;2023-09-08T11:37:12;10.15;;;7.45;;
48629;SDS011;34426;52.180;4.462;2023-09-08T11:39:42;16.95;;;7.50;;
48629;SDS011;34426;52.180;4.462;2023-09-08T11:42:11;17.02;;;8.75;;
48629;SDS011;34426;52.180;4.462;2023-09-08T11:44:40;18.30;;;8.13;;
48629;SDS011;34426;52.180;4.462;2023-09-08T11:47:08;8.63;;;6.25;;
48629;SDS011;34426;52.180;4.462;2023-09-08T11:49:36;12.07;;;7.13;;
48629;SDS011;34426;52.180;4.462;2023-09-08T11:52:05;33.30;;;8.00;;
48629;SDS011;34426;52.180;4.462;2023-09-08T11:54:32;31.73;;;9.15;;
48629;SDS011;34426;52.180;4.462;2023-09-08T11:57:03;14.40;;;7.40;;
48629;SDS011;34426;52.180;4.462;2023-09-08T11:59:31;16.70;;;8.82;;
48629;SDS011;34426;52.180;4.462;2023-09-08T12:01:59;15.25;;;6.72;;
48629;SDS011;34426;52.180;4.462;2023-09-08T12:04:27;12.57;;;6.65;;
48629;SDS011;34426;52.180;4.462;2023-09-08T12:06:55;11.95;;;7.03;;
48629;SDS011;34426;52.180;4.462;2023-09-08T12:09:22;12.30;;;7.47;;
48629;SDS011;34426;52.180;4.462;2023-09-08T12:11:51;13.65;;;5.90;;
48629;SDS011;34426;52.180;4.462;2023-09-08T12:14:20;9.85;;;7.57;;
48629;SDS011;34426;52.180;4.462;2023-09-08T12:16:48;22.52;;;9.02;;
48629;SDS011;34426;52.180;4.462;2023-09-08T12:19:31;20.77;;;8.00;;
48629;SDS011;34426;52.180;4.462;2023-09-08T12:21:59;14.05;;;6.88;;
48629;SDS011;34426;52.180;4.462;2023-09-08T12:24:47;12.25;;;5.47;;
48629;SDS011;34426;52.180;4.462;2023-09-08T12:27:16;12.75;;;6.57;;
48629;SDS011;34426;52.180;4.462;2023-09-08T12:29:53;10.82;;;5.95;;
48629;SDS011;34426;52.180;4.462;2023-09-08T12:32:22;15.93;;;6.10;;
48629;SDS011;34426;52.180;4.462;2023-09-08T12:34:50;14.60;;;5.97;;
48629;SDS011;34426;52.180;4.462;2023-09-08T12:37:21;13.50;;;5.85;;
48629;SDS011;34426;52.180;4.462;2023-09-08T12:39:50;17.63;;;6.70;;
48629;SDS011;34426;52.180;4.462;2023-09-08T12:42:17;11.35;;;6.68;;
48629;SDS011;34426;52.180;4.462;2023-09-08T12:44:44;17.15;;;6.78;;
48629;SDS011;34426;52.180;4.462;2023-09-08T12:47:14;13.27;;;7.15;;
48629;SDS011;34426;52.180;4.462;2023-09-08T12:49:41;14.88;;;6.60;;
48629;SDS011;34426;52.180;4.462;2023-09-08T12:52:08;9.50;;;7.55;;
48629;SDS011;34426;52.180;4.462;2023-09-08T12:54:35;9.93;;;7.45;;
48629;SDS011;34426;52.180;4.462;2023-09-08T12:57:03;18.23;;;8.10;;
48629;SDS011;34426;52.180;4.462;2023-09-08T12:59:30;10.98;;;7.38;;
48629;SDS011;34426;52.180;4.462;2023-09-08T13:01:58;15.57;;;6.47;;
48629;SDS011;34426;52.180;4.462;2023-09-08T13:04:27;11.80;;;6.18;;
48629;SDS011;34426;52.180;4.462;2023-09-08T13:06:54;9.07;;;5.05;;
48629;SDS011;34426;52.180;4.462;2023-09-08T13:09:22;14.73;;;5.57;;
48629;SDS011;34426;52.180;4.462;2023-09-08T13:11:49;9.02;;;4.63;;
48629;SDS011;34426;52.180;4.462;2023-09-08T13:14:17;9.50;;;4.72;;
48629;SDS011;34426;52.180;4.462;2023-09-08T13:16:44;15.18;;;4.82;;
48629;SDS011;34426;52.180;4.462;2023-09-08T13:19:11;7.43;;;5.43;;
48629;SDS011;34426;52.180;4.462;2023-09-08T13:21:40;6.35;;;4.95;;
48629;SDS011;34426;52.180;4.462;2023-09-08T13:24:08;9.70;;;5.15;;
48629;SDS011;34426;52.180;4.462;2023-09-08T13:26:35;11.88;;;4.85;;
48629;SDS011;34426;52.180;4.462;2023-09-08T13:29:03;10.73;;;4.20;;
48629;SDS011;34426;52.180;4.462;2023-09-08T13:31:30;11.23;;;4.15;;
48629;SDS011;34426;52.180;4.462;2023-09-08T13:33:58;7.72;;;3.67;;
48629;SDS011;34426;52.180;4.462;2023-09-08T13:36:25;6.00;;;3.15;;
48629;SDS011;34426;52.180;4.462;2023-09-08T13:38:55;9.85;;;3.60;;
48629;SDS011;34426;52.180;4.462;2023-09-08T13:41:23;10.90;;;3.38;;
48629;SDS011;34426;52.180;4.462;2023-09-08T13:43:50;8.48;;;3.17;;
48629;SDS011;34426;52.180;4.462;2023-09-08T13:46:18;4.45;;;2.28;;
48629;SDS011;34426;52.180;4.462;2023-09-08T13:48:45;8.25;;;3.08;;
48629;SDS011;34426;52.180;4.462;2023-09-08T13:51:13;5.78;;;2.72;;
48629;SDS011;34426;52.180;4.462;2023-09-08T13:53:40;5.93;;;3.17;;
48629;SDS011;34426;52.180;4.462;2023-09-08T13:56:10;7.53;;;2.92;;
48629;SDS011;34426;52.180;4.462;2023-09-08T13:58:37;4.50;;;2.50;;
48629;SDS011;34426;52.180;4.462;2023-09-08T14:01:05;8.95;;;2.40;;
48629;SDS011;34426;52.180;4.462;2023-09-08T14:03:32;8.57;;;2.47;;
48629;SDS011;34426;52.180;4.462;2023-09-08T14:06:00;7.40;;;3.30;;
48629;SDS011;34426;52.180;4.462;2023-09-08T14:08:27;7.15;;;2.78;;
48629;SDS011;34426;52.180;4.462;2023-09-08T14:10:54;5.20;;;2.60;;
48629;SDS011;34426;52.180;4.462;2023-09-08T14:13:23;7.90;;;2.83;;
48629;SDS011;34426;52.180;4.462;2023-09-08T14:15:51;9.10;;;3.05;;
48629;SDS011;34426;52.180;4.462;2023-09-08T14:18:18;4.90;;;2.47;;
48629;SDS011;34426;52.180;4.462;2023-09-08T14:20:45;10.93;;;2.95;;
48629;SDS011;34426;52.180;4.462;2023-09-08T14:23:13;7.32;;;2.58;;
48629;SDS011;34426;52.180;4.462;2023-09-08T14:25:40;7.30;;;2.28;;
48629;SDS011;34426;52.180;4.462;2023-09-08T14:28:07;6.97;;;2.75;;
48629;SDS011;34426;52.180;4.462;2023-09-08T14:30:35;4.43;;;2.47;;
48629;SDS011;34426;52.180;4.462;2023-09-08T14:33:02;5.97;;;2.70;;
48629;SDS011;34426;52.180;4.462;2023-09-08T14:35:28;4.13;;;2.30;;
48629;SDS011;34426;52.180;4.462;2023-09-08T14:37:55;7.53;;;2.60;;